createdAt,value
2019-04-11T00:02:06.708Z,96872.23
2019-04-11T00:04:36.394Z,96865.45
2019-04-11T00:07:06.043Z,96867.24
2019-04-11T00:09:35.572Z,96864.94
2019-04-11T00:12:06.314Z,96871.18
2019-04-11T00:14:35.901Z,96869.06
2019-04-11T00:17:05.806Z,96865.55
2019-04-11T00:19:35.811Z,96871.72
2019-04-11T00:22:05.698Z,96874.19
2019-04-11T00:24:35.208Z,96870.98
2019-04-11T00:27:04.674Z,96865.92
2019-04-11T00:29:34.474Z,96866.37
2019-04-11T00:32:06.504Z,96869.73
2019-04-11T00:34:35.284Z,96868.59
2019-04-11T00:37:05.151Z,96854.64
2019-04-11T00:39:35.387Z,96868.44
2019-04-11T00:42:06.095Z,96860.73
2019-04-11T00:44:35.777Z,96866.70
2019-04-11T00:47:05.153Z,96863.02
2019-04-11T00:49:34.714Z,96866.16
2019-04-11T00:52:04.576Z,96862.52
2019-04-11T00:54:35.249Z,96865.75
2019-04-11T00:57:04.664Z,96863.61
2019-04-11T00:59:34.222Z,96865.89
2019-04-11T01:02:03.555Z,96864.84
2019-04-11T01:04:33.045Z,96859.61
2019-04-11T01:07:02.751Z,96860.09
2019-04-11T01:09:32.639Z,96859.47
2019-04-11T01:12:02.639Z,96856.75
2019-04-11T01:14:32.191Z,96863.38
2019-04-11T01:17:01.570Z,96863.28
2019-04-11T01:19:31.017Z,96871.24
2019-04-11T01:22:01.249Z,96861.11
2019-04-11T01:24:50.286Z,96863.63
2019-04-11T01:27:19.897Z,96871.98
2019-04-11T01:29:49.737Z,96870.77
2019-04-11T01:32:20.210Z,96869.58
2019-04-11T01:34:50.854Z,96877.39
2019-04-11T01:37:21.762Z,96870.56
2019-04-11T01:39:59.253Z,96876.00
2019-04-11T01:42:29.671Z,96870.77
2019-04-11T01:44:59.104Z,96880.18
2019-04-11T01:47:46.907Z,96884.11
2019-04-11T01:50:20.976Z,96888.22
2019-04-11T01:52:50.847Z,96887.22
2019-04-11T01:55:20.698Z,96882.92
2019-04-11T01:57:51.966Z,96883.14
2019-04-11T02:00:37.197Z,96886.23
2019-04-11T02:03:07.160Z,96884.57
2019-04-11T02:05:36.960Z,96880.61
2019-04-11T02:08:07.127Z,96880.94
2019-04-11T02:10:37.121Z,96881.39
2019-04-11T02:13:07.865Z,96886.63
2019-04-11T02:15:38.706Z,96885.08
2019-04-11T02:18:08.207Z,96885.89
2019-04-11T02:20:38.997Z,96882.00
2019-04-11T02:23:15.196Z,96880.73
2019-04-11T02:26:03.012Z,96879.59
2019-04-11T02:28:32.909Z,96885.97
2019-04-11T02:31:04.610Z,96889.62
2019-04-11T02:33:34.857Z,96891.73
2019-04-11T02:36:05.706Z,96896.66
2019-04-11T02:38:37.353Z,96894.20
2019-04-11T02:41:08.593Z,96901.38
2019-04-11T02:43:40.184Z,96901.14
2019-04-11T02:46:19.792Z,96899.86
2019-04-11T02:48:40.802Z,96906.30
2019-04-11T02:51:12.374Z,96909.22
2019-04-11T02:53:42.009Z,96909.95
2019-04-11T02:56:12.582Z,96917.83
2019-04-11T02:58:44.019Z,96917.95
2019-04-11T03:01:13.784Z,96918.45
2019-04-11T03:03:43.313Z,96921.80
2019-04-11T03:06:12.814Z,96920.90
2019-04-11T03:08:43.566Z,96922.64
2019-04-11T03:11:14.386Z,96928.55
2019-04-11T03:13:44.962Z,96922.34
2019-04-11T03:16:29.992Z,96928.73
2019-04-11T03:19:06.959Z,96928.40
2019-04-11T03:21:21.822Z,96927.17
2019-04-11T03:23:53.936Z,96928.94
2019-04-11T03:26:25.043Z,96932.81
2019-04-11T03:28:57.433Z,96939.19
2019-04-11T03:32:05.903Z,96938.84
2019-04-11T03:35:03.233Z,96942.31
2019-04-11T03:37:13.670Z,96939.08
2019-04-11T03:39:21.612Z,96946.64
2019-04-11T03:41:51.871Z,96943.09
2019-04-11T03:44:15.969Z,96942.35
2019-04-11T03:46:51.065Z,96946.42
2019-04-11T03:49:20.714Z,96953.30
2019-04-11T03:51:41.421Z,96949.75
2019-04-11T03:54:11.616Z,96952.98
2019-04-11T03:56:43.138Z,96960.14
2019-04-11T03:59:16.351Z,96956.23
2019-04-11T04:01:44.630Z,96967.34
2019-04-11T04:04:19.328Z,96966.53
2019-04-11T04:06:47.928Z,96973.48
2019-04-11T04:09:19.444Z,96977.86
2019-04-11T04:11:51.856Z,96973.73
2019-04-11T04:14:42.851Z,96975.66
2019-04-11T04:17:35.239Z,96977.55
2019-04-11T04:20:30.742Z,96980.66
2019-04-11T04:23:10.266Z,96986.83
2019-04-11T04:25:45.000Z,96989.79
2019-04-11T04:28:14.258Z,96989.70
2019-04-11T04:30:45.313Z,96986.92
2019-04-11T04:33:16.863Z,96995.86
2019-04-11T04:35:47.547Z,96998.19
2019-04-11T04:38:18.909Z,96997.59
2019-04-11T04:41:05.444Z,97001.06
2019-04-11T04:43:20.645Z,97000.46
2019-04-11T04:46:08.546Z,97002.70
2019-04-11T04:48:24.755Z,97005.02
2019-04-11T04:50:54.431Z,97010.46
2019-04-11T04:53:25.725Z,97009.42
2019-04-11T04:55:54.494Z,97015.66
2019-04-11T04:58:24.880Z,97018.84
2019-04-11T05:00:56.672Z,97026.55
2019-04-11T05:03:26.764Z,97020.16
2019-04-11T05:05:56.206Z,97034.98
2019-04-11T05:08:27.140Z,97031.79
2019-04-11T05:10:57.878Z,97033.98
2019-04-11T05:14:25.257Z,97032.97
2019-04-11T05:16:54.930Z,97034.89
2019-04-11T05:19:25.456Z,97038.85
2019-04-11T05:21:55.019Z,97044.95
2019-04-11T05:24:24.450Z,97039.48
2019-04-11T05:26:53.910Z,97039.80
2019-04-11T05:29:23.234Z,97039.28
2019-04-11T05:31:52.607Z,97051.19
2019-04-11T05:34:21.997Z,97051.81
2019-04-11T05:36:51.362Z,97040.76
2019-04-11T05:39:20.714Z,97053.29
2019-04-11T05:41:51.317Z,97051.87
2019-04-11T05:44:21.198Z,97055.19
2019-04-11T05:46:57.206Z,97063.52
2019-04-11T05:49:29.081Z,97065.39
2019-04-11T05:52:03.986Z,97060.81
2019-04-11T05:54:49.334Z,97071.22
2019-04-11T05:57:22.641Z,97072.16
2019-04-11T05:59:53.095Z,97067.08
2019-04-11T06:02:33.655Z,97064.08
2019-04-11T06:05:31.804Z,97063.89
2019-04-11T06:08:00.426Z,97064.08
2019-04-11T06:10:54.699Z,97062.52
2019-04-11T06:13:28.944Z,97067.96
2019-04-11T06:16:01.399Z,97065.27
2019-04-11T06:18:48.468Z,97056.29
2019-04-11T06:21:22.201Z,97060.95
2019-04-11T06:24:14.212Z,97066.03
2019-04-11T06:26:47.072Z,97067.64
2019-04-11T06:29:31.262Z,97071.34
2019-04-11T06:32:19.160Z,97069.19
2019-04-11T06:34:57.763Z,97070.00
2019-04-11T06:37:45.678Z,97069.73
2019-04-11T06:40:33.232Z,97075.04
2019-04-11T06:43:09.913Z,97075.45
2019-04-11T06:45:50.374Z,97079.42
2019-04-11T06:48:50.683Z,97085.64
2019-04-11T06:51:32.669Z,97081.83
2019-04-11T06:54:19.528Z,97085.84
2019-04-11T06:56:51.031Z,97092.86
2019-04-11T06:59:34.480Z,97078.17
2019-04-11T07:02:18.037Z,97081.84
2019-04-11T07:04:55.139Z,97091.11
2019-04-11T07:07:28.726Z,97089.23
2019-04-11T07:10:02.243Z,97086.02
2019-04-11T07:12:43.895Z,97084.02
2019-04-11T07:15:27.249Z,97084.11
2019-04-11T07:18:14.188Z,97086.00
2019-04-11T07:20:56.105Z,97091.09
2019-04-11T07:23:44.542Z,97079.66
2019-04-11T07:26:25.277Z,97093.45
2019-04-11T07:29:23.841Z,97088.88
2019-04-11T07:32:18.322Z,97096.27
2019-04-11T07:35:05.015Z,97100.27
2019-04-11T07:37:53.580Z,97099.77
2019-04-11T07:40:41.194Z,97101.95
2019-04-11T07:43:19.379Z,97103.47
2019-04-11T07:46:25.194Z,97111.16
2019-04-11T07:49:01.494Z,97110.88
2019-04-11T07:51:32.776Z,97115.48
2019-04-11T07:54:04.759Z,97113.25
2019-04-11T07:56:42.154Z,97102.52
2019-04-11T07:59:31.380Z,97102.83
2019-04-11T08:02:26.871Z,97108.45
2019-04-11T08:05:13.851Z,97110.06
2019-04-11T08:08:06.261Z,97106.51
2019-04-11T08:10:46.800Z,97106.95
2019-04-11T08:13:24.122Z,97105.91
2019-04-11T08:16:20.393Z,97119.87
2019-04-11T08:19:26.918Z,97105.27
2019-04-11T08:22:08.485Z,97118.95
2019-04-11T08:24:44.904Z,97110.80
2019-04-11T08:27:30.252Z,97118.03
2019-04-11T08:30:00.445Z,97115.98
2019-04-11T08:32:58.250Z,97115.52
2019-04-11T08:35:52.946Z,97116.23
2019-04-11T08:38:28.966Z,97123.90
2019-04-11T08:41:07.308Z,97122.98
2019-04-11T08:43:37.439Z,97123.56
2019-04-11T08:46:20.663Z,97115.20
2019-04-11T08:48:53.082Z,97116.62
2019-04-11T08:51:23.300Z,97117.83
2019-04-11T08:54:23.771Z,97129.34
2019-04-11T08:56:53.606Z,97129.34
2019-04-11T08:59:42.029Z,97125.63
2019-04-11T09:02:14.842Z,97115.83
2019-04-11T09:05:11.967Z,97126.75
2019-04-11T09:07:43.567Z,97128.55
2019-04-11T09:10:42.367Z,97131.16
2019-04-11T09:13:31.348Z,97131.16
2019-04-11T09:16:39.559Z,97121.33
2019-04-11T09:19:27.961Z,97114.29
2019-04-11T09:22:29.017Z,97131.31
2019-04-11T09:25:30.475Z,97125.31
2019-04-11T09:28:17.560Z,97120.30
2019-04-11T09:31:21.218Z,97113.34
2019-04-11T09:34:25.839Z,97118.77
2019-04-11T09:37:16.820Z,97122.40
2019-04-11T09:40:19.533Z,97124.19
2019-04-11T09:43:07.172Z,97118.13
2019-04-11T09:45:54.287Z,97121.35
2019-04-11T09:48:34.661Z,97128.60
2019-04-11T09:51:35.986Z,97117.22
2019-04-11T09:54:28.372Z,97103.03
2019-04-11T09:57:34.826Z,97107.86
2019-04-11T10:00:26.827Z,97117.90
2019-04-11T10:03:13.194Z,97126.55
2019-04-11T10:06:13.981Z,97113.37
2019-04-11T10:08:55.888Z,97116.88
2019-04-11T10:11:59.172Z,97116.95
2019-04-11T10:14:31.404Z,97108.95
2019-04-11T10:17:32.046Z,97129.03
2019-04-11T10:20:04.712Z,97114.13
2019-04-11T10:22:52.273Z,97102.12
2019-04-11T10:25:39.471Z,97113.78
2019-04-11T10:28:30.853Z,97121.44
2019-04-11T10:31:18.249Z,97119.84
2019-04-11T10:34:06.153Z,97115.62
2019-04-11T10:37:01.344Z,97117.03
2019-04-11T10:39:53.438Z,97113.41
2019-04-11T10:42:24.700Z,97109.00
2019-04-11T10:45:14.150Z,97119.25
2019-04-11T10:47:44.959Z,97117.08
2019-04-11T10:50:22.111Z,97123.21
2019-04-11T10:52:56.823Z,97124.98
2019-04-11T10:55:49.339Z,97107.48
2019-04-11T10:58:24.756Z,97115.23
2019-04-11T11:01:07.735Z,97108.02
2019-04-11T11:04:03.286Z,97114.23
2019-04-11T11:06:33.248Z,97110.23
2019-04-11T11:09:14.193Z,97109.88
2019-04-11T11:11:48.531Z,97102.37
2019-04-11T11:14:39.633Z,97110.14
2019-04-11T11:17:43.931Z,97106.05
2019-04-11T11:20:22.250Z,97115.14
2019-04-11T11:23:07.745Z,97106.83
2019-04-11T11:25:48.591Z,97103.16
2019-04-11T11:28:18.919Z,97105.91
2019-04-11T11:31:05.610Z,97107.66
2019-04-11T11:33:35.154Z,97107.04
2019-04-11T11:36:23.617Z,97109.02
2019-04-11T11:39:26.974Z,97110.32
2019-04-11T11:42:22.148Z,97114.33
2019-04-11T11:44:55.289Z,97111.16
2019-04-11T11:47:43.133Z,97102.78
2019-04-11T11:50:18.771Z,97106.27
2019-04-11T11:53:08.269Z,97112.42
2019-04-11T11:55:37.743Z,97113.08
2019-04-11T11:58:43.481Z,97101.88
2019-04-11T12:01:31.592Z,97106.69
2019-04-11T12:04:32.954Z,97078.48
2019-04-11T12:07:05.235Z,97107.58
2019-04-11T12:09:51.009Z,97098.91
2019-04-11T12:12:25.394Z,97109.56
2019-04-11T12:15:16.930Z,97110.80
2019-04-11T12:18:17.215Z,97096.98
2019-04-11T12:20:54.276Z,97105.66
2019-04-11T12:23:48.616Z,97110.56
2019-04-11T12:26:14.205Z,97108.73
2019-04-11T12:29:01.729Z,97104.09
2019-04-11T12:31:32.101Z,97104.40
2019-04-11T12:34:18.543Z,97107.31
2019-04-11T12:36:50.924Z,97093.96
2019-04-11T12:39:40.800Z,97089.77
2019-04-11T12:42:15.469Z,97097.83
2019-04-11T12:45:06.665Z,97092.53
2019-04-11T12:47:39.242Z,97096.50
2019-04-11T12:50:27.833Z,97101.55
2019-04-11T12:53:29.072Z,97108.00
2019-04-11T12:56:24.116Z,97101.06
2019-04-11T12:59:11.858Z,97093.80
2019-04-11T13:01:58.779Z,97090.59
2019-04-11T13:04:49.922Z,97090.48
2019-04-11T13:07:53.124Z,97088.42
2019-04-11T13:10:47.234Z,97081.80
2019-04-11T13:13:27.352Z,97068.59
2019-04-11T13:16:11.075Z,97084.65
2019-04-11T13:19:04.780Z,97089.78
2019-04-11T13:21:44.420Z,97081.66
2019-04-11T13:24:50.949Z,97074.18
2019-04-11T13:27:25.499Z,97083.37
2019-04-11T13:30:13.855Z,97078.11
2019-04-11T13:33:00.156Z,97072.73
2019-04-11T13:35:51.082Z,97064.89
2019-04-11T13:38:30.127Z,97077.52
2019-04-11T13:41:20.239Z,97058.67
2019-04-11T13:43:58.538Z,97068.92
2019-04-11T13:46:46.951Z,97070.00
2019-04-11T13:49:35.770Z,97066.37
2019-04-11T13:52:30.442Z,97072.55
2019-04-11T13:55:03.453Z,97073.48
2019-04-11T13:57:57.630Z,97072.67
2019-04-11T14:00:45.610Z,97062.72
2019-04-11T14:03:29.762Z,97062.49
2019-04-11T14:06:02.090Z,97067.06
2019-04-11T14:08:50.346Z,97062.77
2019-04-11T14:11:19.726Z,97061.61
2019-04-11T14:13:48.984Z,97057.97
2019-04-11T14:16:20.863Z,97061.86
2019-04-11T14:19:18.432Z,97062.45
2019-04-11T14:21:48.807Z,97059.98
2019-04-11T14:24:42.760Z,97064.89
2019-04-11T14:27:31.068Z,97065.89
2019-04-11T14:30:22.153Z,97058.92
2019-04-11T14:32:53.902Z,97047.59
2019-04-11T14:35:39.758Z,97059.90
2019-04-11T14:38:17.294Z,97055.12
2019-04-11T14:41:04.332Z,97047.50
2019-04-11T14:43:40.133Z,97050.03
2019-04-11T14:46:28.481Z,97056.51
2019-04-11T14:49:14.247Z,97041.55
2019-04-11T14:52:01.226Z,97039.00
2019-04-11T14:57:13.823Z,97042.98
2019-04-11T14:59:48.224Z,97050.19
2019-04-11T15:02:38.011Z,97046.26
2019-04-11T15:05:21.164Z,97043.44
2019-04-11T15:07:52.008Z,97053.71
2019-04-11T15:10:43.209Z,97046.15
2019-04-11T15:13:17.969Z,97046.98
2019-04-11T15:16:18.764Z,97038.22
2019-04-11T15:18:58.943Z,97043.56
2019-04-11T15:22:41.745Z,97041.96
2019-04-11T15:25:30.051Z,97049.42
2019-04-11T15:28:21.258Z,97052.89
2019-04-11T15:31:38.840Z,97054.83
2019-04-11T15:34:19.566Z,97054.55
2019-04-11T15:37:11.762Z,97050.94
2019-04-11T15:40:01.016Z,97052.09
2019-04-11T15:42:59.119Z,97051.55
2019-04-11T15:45:38.008Z,97059.95
2019-04-11T15:48:26.372Z,97061.47
2019-04-11T15:51:13.212Z,97066.47
2019-04-11T15:54:04.693Z,97061.67
2019-04-11T15:57:00.511Z,97066.47
2019-04-11T15:59:58.235Z,97063.17
2019-04-11T16:02:53.851Z,97061.43
2019-04-11T16:05:49.337Z,97057.27
2019-04-11T16:08:50.534Z,97062.41
2019-04-11T16:11:40.594Z,97070.70
2019-04-11T16:14:18.644Z,97070.36
2019-04-11T16:17:05.676Z,97072.43
2019-04-11T16:19:47.573Z,97074.56
2019-04-11T16:22:32.383Z,97069.38
2019-04-11T16:25:04.465Z,97070.54
2019-04-11T16:28:01.636Z,97069.30
2019-04-11T16:30:32.633Z,97079.60
2019-04-11T16:33:22.623Z,97079.88
2019-04-11T16:36:17.437Z,97079.91
2019-04-11T16:39:04.553Z,97073.16
2019-04-11T16:41:56.599Z,97079.03
2019-04-11T16:45:18.189Z,97079.63
2019-04-11T16:48:05.790Z,97082.50
2019-04-11T16:50:35.145Z,97082.95
2019-04-11T16:53:04.900Z,97090.55
2019-04-11T16:55:36.674Z,97090.09
2019-04-11T16:58:05.781Z,97095.41
2019-04-11T17:00:35.357Z,97088.72
2019-04-11T17:03:04.788Z,97092.57
2019-04-11T17:05:35.912Z,97092.98
2019-04-11T17:08:26.465Z,97094.05
2019-04-11T17:11:08.369Z,97095.30
2019-04-11T17:13:38.927Z,97097.00
2019-04-11T17:16:11.822Z,97096.59
2019-04-11T17:18:41.123Z,97093.20
2019-04-11T17:21:10.820Z,97096.64
2019-04-11T17:23:40.231Z,97103.93
2019-04-11T17:26:09.677Z,97096.87
2019-04-11T17:28:39.079Z,97100.07
2019-04-11T17:31:08.366Z,97100.16
2019-04-11T17:33:37.721Z,97102.94
2019-04-11T17:36:07.138Z,97104.80
2019-04-11T17:38:37.270Z,97108.88
2019-04-11T17:41:10.881Z,97108.45
2019-04-11T17:43:38.073Z,97116.92
2019-04-11T17:46:07.617Z,97119.14
2019-04-11T17:48:36.877Z,97121.30
2019-04-11T17:51:06.275Z,97122.90
2019-04-11T17:53:38.637Z,97130.92
2019-04-11T17:56:08.006Z,97128.86
2019-04-11T17:58:37.390Z,97127.91
2019-04-11T18:01:08.053Z,97134.83
2019-04-11T18:03:37.372Z,97131.66
2019-04-11T18:06:06.787Z,97138.82
2019-04-11T18:08:36.147Z,97137.94
2019-04-11T18:11:05.540Z,97141.71
2019-04-11T18:13:34.910Z,97143.98
2019-04-11T18:16:04.294Z,97147.05
2019-04-11T18:18:35.152Z,97147.42
2019-04-11T18:21:07.355Z,97146.59
2019-04-11T18:23:36.721Z,97147.52
2019-04-11T18:26:06.948Z,97154.31
2019-04-11T18:28:36.385Z,97145.73
2019-04-11T18:31:07.747Z,97153.45
2019-04-11T18:33:37.109Z,97152.98
2019-04-11T18:36:07.645Z,97154.38
2019-04-11T18:38:36.975Z,97155.43
2019-04-11T18:41:06.696Z,97163.05
2019-04-11T18:43:37.056Z,97160.63
2019-04-11T18:46:06.383Z,97163.64
2019-04-11T18:48:36.800Z,97169.33
2019-04-11T18:51:06.135Z,97168.79
2019-04-11T18:53:35.552Z,97167.97
2019-04-11T18:56:05.430Z,97172.53
2019-04-11T18:58:34.832Z,97167.92
2019-04-11T19:01:08.879Z,97169.86
2019-04-11T19:03:41.143Z,97173.42
2019-04-11T19:06:12.888Z,97170.89
2019-04-11T19:08:43.102Z,97174.00
2019-04-11T19:11:11.184Z,97171.34
2019-04-11T19:13:40.586Z,97172.83
2019-04-11T19:16:10.033Z,97178.57
2019-04-11T19:18:39.588Z,97181.83
2019-04-11T19:21:08.852Z,97178.86
2019-04-11T19:23:39.048Z,97189.27
2019-04-11T19:26:09.092Z,97178.55
2019-04-11T19:28:38.850Z,97186.73
2019-04-11T19:31:08.168Z,97185.23
2019-04-11T19:33:39.853Z,97185.64
2019-04-11T19:36:10.001Z,97190.19
2019-04-11T19:38:43.072Z,97188.94
2019-04-11T19:41:10.738Z,97190.77
2019-04-11T19:43:40.896Z,97188.51
2019-04-11T19:46:10.453Z,97192.39
2019-04-11T19:48:39.806Z,97183.70
2019-04-11T19:51:10.996Z,97192.38
2019-04-11T19:53:40.766Z,97178.59
2019-04-11T19:56:18.011Z,97188.14
2019-04-11T19:58:47.245Z,97187.94
2019-04-11T20:01:16.901Z,97188.09
2019-04-11T20:03:46.185Z,97187.13
2019-04-11T20:06:15.514Z,97189.78
2019-04-11T20:08:44.790Z,97189.19
2019-04-11T20:11:14.142Z,97189.00
2019-04-11T20:13:43.396Z,97187.67
2019-04-11T20:16:13.320Z,97189.30
2019-04-11T20:18:50.826Z,97192.88
2019-04-11T20:21:13.747Z,97190.42
2019-04-11T20:23:42.991Z,97190.83
2019-04-11T20:26:12.333Z,97196.22
2019-04-11T20:28:41.593Z,97191.59
2019-04-11T20:31:10.922Z,97200.20
2019-04-11T20:33:40.129Z,97197.11
2019-04-11T20:36:11.139Z,97198.50
2019-04-11T20:38:40.580Z,97206.76
2019-04-11T20:41:10.022Z,97203.96
2019-04-11T20:43:39.323Z,97207.59
2019-04-11T20:48:30.934Z,97202.10
2019-04-11T20:51:00.767Z,97202.80
2019-04-11T20:53:30.013Z,97205.98
2019-04-11T20:56:00.670Z,97205.07
2019-04-11T20:58:30.001Z,97206.02
2019-04-11T21:00:59.571Z,97209.30
2019-04-11T21:03:30.217Z,97205.52
2019-04-11T21:06:01.813Z,97213.47
2019-04-11T21:08:33.193Z,97211.33
2019-04-11T21:11:04.685Z,97211.84
2019-04-11T21:13:33.133Z,97213.98
2019-04-11T21:16:02.548Z,97209.45
2019-04-11T21:18:31.770Z,97210.86
2019-04-11T21:21:01.060Z,97210.34
2019-04-11T21:23:30.476Z,97219.05
2019-04-11T21:25:59.773Z,97223.42
2019-04-11T21:28:30.333Z,97218.63
2019-04-11T21:31:00.829Z,97226.59
2019-04-11T21:33:34.000Z,97224.98
2019-04-11T21:36:02.037Z,97227.84
2019-04-11T21:38:31.635Z,97227.84
2019-04-11T21:41:00.862Z,97226.83
2019-04-11T21:43:30.119Z,97232.22
2019-04-11T21:45:59.451Z,97236.53
2019-04-11T21:48:28.803Z,97236.42
2019-04-11T21:50:58.233Z,97247.97
2019-04-11T21:53:36.452Z,97245.51
2019-04-11T21:55:59.021Z,97246.24
2019-04-11T21:58:28.298Z,97253.58
2019-04-11T22:01:04.131Z,97249.00
2019-04-11T22:03:33.614Z,97254.30
2019-04-11T22:06:02.910Z,97241.73
2019-04-11T22:08:34.364Z,97245.12
2019-04-11T22:11:03.732Z,97248.25
2019-04-11T22:13:37.993Z,97252.62
2019-04-11T22:16:07.369Z,97237.95
2019-04-11T22:18:37.733Z,97249.77
2019-04-11T22:21:07.103Z,97244.56
2019-04-11T22:23:48.139Z,97247.09
2019-04-11T22:26:07.591Z,97247.70
2019-04-11T22:28:36.929Z,97245.58
2019-04-11T22:31:06.285Z,97250.33
2019-04-11T22:33:59.108Z,97244.83
2019-04-11T22:36:30.587Z,97253.89
2019-04-11T22:39:01.082Z,97249.30
2019-04-11T22:41:30.823Z,97252.83
2019-04-11T22:44:00.235Z,97248.48
2019-04-11T22:46:29.503Z,97251.29
2019-04-11T22:48:58.761Z,97252.02
2019-04-11T22:51:28.148Z,97259.42
2019-04-11T22:54:00.447Z,97253.91
2019-04-11T22:56:28.515Z,97249.43
2019-04-11T22:58:57.938Z,97255.23
2019-04-11T23:01:27.216Z,97251.67
2019-04-11T23:03:59.600Z,97257.25
2019-04-11T23:06:28.950Z,97253.05
2019-04-11T23:08:58.478Z,97249.55
2019-04-11T23:11:27.906Z,97252.70
2019-04-11T23:13:57.401Z,97253.42
2019-04-11T23:16:26.902Z,97242.80
2019-04-11T23:18:57.355Z,97251.25
2019-04-11T23:21:26.635Z,97259.69
2019-04-11T23:23:55.887Z,97254.17
2019-04-11T23:26:25.474Z,97254.17
2019-04-11T23:28:54.864Z,97255.77
2019-04-11T23:31:24.114Z,97256.99
2019-04-11T23:33:53.458Z,97259.28
2019-04-11T23:36:22.822Z,97263.73
2019-04-11T23:38:52.958Z,97265.34
2019-04-11T23:41:23.088Z,97262.20
2019-04-11T23:43:52.504Z,97265.88
2019-04-11T23:46:22.089Z,97264.84
2019-04-11T23:48:54.698Z,97269.25
2019-04-11T23:51:25.447Z,97270.76
2019-04-11T23:53:53.686Z,97275.63
2019-04-11T23:56:22.934Z,97276.98
2019-04-11T23:58:52.261Z,97275.26
